createdAt,value
2019-05-12T00:02:08.673Z,100.00
2019-05-12T00:04:35.353Z,100.00
2019-05-12T00:07:02.101Z,100.00
2019-05-12T00:09:28.772Z,100.00
2019-05-12T00:11:55.549Z,100.00
2019-05-12T00:14:22.286Z,100.00
2019-05-12T00:16:49.239Z,100.00
2019-05-12T00:19:17.920Z,100.00
2019-05-12T00:21:48.143Z,100.00
2019-05-12T00:24:14.614Z,100.00
2019-05-12T00:26:41.518Z,100.00
2019-05-12T00:29:08.452Z,100.00
2019-05-12T00:31:35.253Z,100.00
2019-05-12T00:34:02.047Z,100.00
2019-05-12T00:36:29.842Z,100.00
2019-05-12T00:38:58.061Z,100.00
2019-05-12T00:41:25.018Z,100.00
2019-05-12T00:43:51.817Z,100.00
2019-05-12T00:46:18.589Z,100.00
2019-05-12T00:48:45.300Z,100.00
2019-05-12T00:51:11.975Z,100.00
2019-05-12T00:53:43.138Z,100.00
2019-05-12T00:56:08.532Z,100.00
2019-05-12T00:58:35.371Z,100.00
2019-05-12T01:01:02.178Z,100.00
2019-05-12T01:03:28.851Z,100.00
2019-05-12T01:05:57.706Z,100.00
2019-05-12T01:08:24.156Z,100.00
2019-05-12T01:10:50.830Z,100.00
2019-05-12T01:13:18.646Z,100.00
2019-05-12T01:15:48.031Z,100.00
2019-05-12T01:18:14.382Z,100.00
2019-05-12T01:20:41.090Z,100.00
2019-05-12T01:23:08.468Z,100.00
2019-05-12T01:25:35.794Z,100.00
2019-05-12T01:28:02.616Z,100.00
2019-05-12T01:30:29.402Z,100.00
2019-05-12T01:32:58.211Z,100.00
2019-05-12T01:35:27.803Z,100.00
2019-05-12T01:37:54.072Z,100.00
2019-05-12T01:40:20.773Z,100.00
2019-05-12T01:42:48.403Z,100.00
2019-05-12T01:45:15.239Z,100.00
2019-05-12T01:47:41.936Z,100.00
2019-05-12T01:50:09.414Z,100.00
2019-05-12T01:52:38.399Z,100.00
2019-05-12T01:55:07.971Z,100.00
2019-05-12T01:57:34.742Z,100.00
2019-05-12T02:00:01.891Z,100.00
2019-05-12T02:02:28.726Z,100.00
2019-05-12T02:05:03.501Z,100.00
2019-05-12T02:07:32.701Z,100.00
2019-05-12T02:09:59.515Z,100.00
2019-05-12T02:12:28.737Z,100.00
2019-05-12T02:14:54.890Z,100.00
2019-05-12T02:17:21.970Z,100.00
2019-05-12T02:19:48.772Z,100.00
2019-05-12T02:22:15.436Z,100.00
2019-05-12T02:24:42.239Z,100.00
2019-05-12T02:27:08.921Z,100.00
2019-05-12T02:29:35.733Z,100.00
2019-05-12T02:32:02.820Z,100.00
2019-05-12T02:34:29.496Z,100.00
2019-05-12T02:36:56.320Z,100.00
2019-05-12T02:39:24.890Z,100.00
2019-05-12T02:41:54.219Z,100.00
2019-05-12T02:44:20.424Z,100.00
2019-05-12T02:46:47.137Z,100.00
2019-05-12T02:49:15.664Z,100.00
2019-05-12T02:51:45.565Z,100.00
2019-05-12T02:54:14.380Z,100.00
2019-05-12T02:56:44.909Z,100.00
2019-05-12T02:59:11.184Z,100.00
2019-05-12T03:01:39.717Z,100.00
2019-05-12T03:04:07.545Z,100.00
2019-05-12T03:06:36.261Z,100.00
2019-05-12T03:09:06.131Z,100.00
2019-05-12T03:11:35.454Z,100.00
2019-05-12T03:14:04.059Z,100.00
2019-05-12T03:16:34.646Z,100.00
2019-05-12T03:18:59.752Z,100.00
2019-05-12T03:21:26.462Z,100.00
2019-05-12T03:23:55.107Z,100.00
2019-05-12T03:26:24.673Z,100.00
2019-05-12T03:28:50.433Z,100.00
2019-05-12T03:31:23.678Z,100.00
2019-05-12T03:33:52.513Z,100.00
2019-05-12T03:36:17.827Z,100.00
2019-05-12T03:38:45.014Z,100.00
2019-05-12T03:41:14.724Z,100.00
2019-05-12T03:43:44.920Z,100.00
2019-05-12T03:46:15.196Z,100.00
2019-05-12T03:48:50.230Z,100.00
2019-05-12T03:51:20.332Z,100.00
2019-05-12T03:53:51.331Z,100.00
2019-05-12T03:56:20.948Z,100.00
2019-05-12T03:58:54.140Z,100.00
2019-05-12T04:01:45.166Z,100.00
2019-05-12T04:04:16.005Z,100.00
2019-05-12T04:06:46.486Z,100.00
2019-05-12T04:09:16.743Z,100.00
2019-05-12T04:11:46.516Z,100.00
2019-05-12T04:14:18.425Z,100.00
2019-05-12T04:16:48.656Z,100.00
2019-05-12T04:19:18.811Z,100.00
2019-05-12T04:21:48.961Z,100.00
2019-05-12T04:24:18.949Z,100.00
2019-05-12T04:26:48.542Z,100.00
2019-05-12T04:29:18.180Z,100.00
2019-05-12T04:31:47.193Z,100.00
2019-05-12T04:34:38.886Z,100.00
2019-05-12T04:37:09.184Z,100.00
2019-05-12T04:39:39.147Z,100.00
2019-05-12T04:42:08.367Z,100.00
2019-05-12T04:44:38.231Z,100.00
2019-05-12T04:47:07.637Z,100.00
2019-05-12T04:49:37.596Z,100.00
2019-05-12T04:52:07.168Z,100.00
2019-05-12T04:54:36.569Z,100.00
2019-05-12T04:57:06.686Z,100.00
2019-05-12T04:59:36.178Z,100.00
2019-05-12T05:02:06.451Z,100.00
2019-05-12T05:04:36.957Z,100.00
2019-05-12T05:07:09.111Z,100.00
2019-05-12T05:09:39.186Z,100.00
2019-05-12T05:12:06.241Z,100.00
2019-05-12T05:14:34.060Z,100.00
2019-05-12T05:17:00.962Z,100.00
2019-05-12T05:19:27.737Z,100.00
2019-05-12T05:21:54.414Z,100.00
2019-05-12T05:24:23.375Z,100.00
2019-05-12T05:26:49.808Z,100.00
2019-05-12T05:29:16.590Z,100.00
2019-05-12T05:31:44.179Z,100.00
2019-05-12T05:34:11.454Z,100.00
2019-05-12T05:36:38.137Z,100.00
2019-05-12T05:39:06.518Z,100.00
2019-05-12T05:41:34.573Z,100.00
2019-05-12T05:44:03.126Z,100.00
2019-05-12T05:46:30.418Z,100.00
2019-05-12T05:48:57.106Z,100.00
2019-05-12T05:51:23.907Z,100.00
2019-05-12T05:53:51.968Z,100.00
2019-05-12T05:56:19.777Z,100.00
2019-05-12T05:58:51.649Z,100.00
2019-05-12T06:01:15.043Z,100.00
2019-05-12T06:03:43.854Z,100.00
2019-05-12T06:06:12.496Z,100.00
2019-05-12T06:08:39.366Z,100.00
2019-05-12T06:11:08.560Z,100.00
2019-05-12T06:13:34.686Z,100.00
2019-05-12T06:16:01.556Z,100.00
2019-05-12T06:18:29.108Z,100.00
2019-05-12T06:20:55.917Z,100.00
2019-05-12T06:23:24.059Z,100.00
2019-05-12T06:25:51.735Z,100.00
2019-05-12T06:28:20.499Z,100.00
2019-05-12T06:30:50.072Z,100.00
2019-05-12T06:33:15.864Z,100.00
2019-05-12T06:35:45.117Z,100.00
2019-05-12T06:38:13.422Z,100.00
2019-05-12T06:40:42.334Z,100.00
2019-05-12T06:43:08.458Z,100.00
2019-05-12T06:45:41.894Z,100.00
2019-05-12T06:48:04.089Z,100.00
2019-05-12T06:50:37.041Z,100.00
2019-05-12T06:52:59.858Z,100.00
2019-05-12T06:55:28.683Z,100.00
2019-05-12T06:57:56.446Z,100.00
2019-05-12T07:00:30.852Z,100.00
2019-05-12T07:02:55.285Z,100.00
2019-05-12T07:05:23.243Z,100.00
2019-05-12T07:07:50.122Z,100.00
2019-05-12T07:10:35.807Z,100.00
2019-05-12T07:12:59.022Z,100.00
2019-05-12T07:15:14.497Z,100.00
2019-05-12T07:18:04.431Z,100.00
2019-05-12T07:20:35.417Z,100.00
2019-05-12T07:22:59.854Z,100.00
2019-05-12T07:25:31.113Z,100.00
2019-05-12T07:28:00.809Z,100.00
2019-05-12T07:30:26.767Z,100.00
2019-05-12T07:32:59.690Z,100.00
2019-05-12T07:35:24.042Z,100.00
2019-05-12T07:37:53.449Z,100.00
2019-05-12T07:40:25.376Z,100.00
2019-05-12T07:42:51.001Z,100.00
2019-05-12T07:45:22.311Z,100.00
2019-05-12T07:47:46.482Z,100.00
2019-05-12T07:50:18.257Z,100.00
2019-05-12T07:52:44.178Z,100.00
2019-05-12T07:55:10.825Z,100.00
2019-05-12T07:57:50.870Z,100.00
2019-05-12T08:00:11.522Z,100.00
2019-05-12T08:02:35.823Z,100.00
2019-05-12T08:05:03.866Z,98.84
2019-05-12T08:07:30.769Z,98.82
2019-05-12T08:09:57.562Z,98.82
2019-05-12T08:12:24.406Z,85.15
2019-05-12T08:14:51.050Z,82.54
2019-05-12T08:17:19.647Z,84.79
2019-05-12T08:19:46.424Z,83.84
2019-05-12T08:22:13.633Z,83.75
2019-05-12T08:24:42.983Z,87.44
2019-05-12T08:27:09.210Z,87.44
2019-05-12T08:29:35.909Z,81.49
2019-05-12T08:32:03.776Z,78.11
2019-05-12T08:34:30.706Z,72.60
2019-05-12T08:36:58.179Z,72.60
2019-05-12T08:39:25.990Z,67.21
2019-05-12T08:41:53.501Z,73.09
2019-05-12T08:44:24.665Z,73.09
2019-05-12T08:46:53.457Z,70.63
2019-05-12T08:49:18.949Z,68.77
2019-05-12T08:51:49.618Z,66.64
2019-05-12T08:54:14.321Z,67.85
2019-05-12T08:56:40.961Z,64.73
2019-05-12T08:59:09.517Z,69.96
2019-05-12T09:01:36.370Z,61.48
2019-05-12T09:04:06.578Z,60.68
2019-05-12T09:06:34.153Z,63.19
2019-05-12T09:09:03.374Z,60.88
2019-05-12T09:11:29.682Z,61.31
2019-05-12T09:14:00.465Z,60.01
2019-05-12T09:16:24.988Z,58.10
2019-05-12T09:18:51.685Z,60.34
2019-05-12T09:21:25.309Z,58.38
2019-05-12T09:23:46.991Z,58.97
2019-05-12T09:26:13.675Z,55.23
2019-05-12T09:28:49.232Z,57.74
2019-05-12T09:31:09.325Z,60.33
2019-05-12T09:33:36.065Z,58.63
2019-05-12T09:36:04.350Z,58.38
2019-05-12T09:38:33.142Z,64.07
2019-05-12T09:41:01.072Z,62.37
2019-05-12T09:43:28.517Z,62.15
2019-05-12T09:45:56.407Z,51.75
2019-05-12T09:48:24.676Z,51.46
2019-05-12T09:51:00.477Z,50.96
2019-05-12T09:53:23.762Z,51.53
2019-05-12T09:55:50.131Z,51.65
2019-05-12T09:58:23.111Z,54.12
2019-05-12T10:00:45.511Z,52.95
2019-05-12T10:03:13.869Z,53.97
2019-05-12T10:05:41.455Z,54.48
2019-05-12T10:08:08.311Z,56.41
2019-05-12T10:10:40.067Z,55.87
2019-05-12T10:13:05.123Z,56.59
2019-05-12T10:15:33.194Z,57.02
2019-05-12T10:18:05.307Z,52.95
2019-05-12T10:20:29.076Z,49.26
2019-05-12T10:22:57.515Z,50.22
2019-05-12T10:25:28.382Z,49.91
2019-05-12T10:27:53.239Z,51.16
2019-05-12T10:30:20.154Z,52.25
2019-05-12T10:32:46.867Z,52.01
2019-05-12T10:35:20.857Z,52.05
2019-05-12T10:37:44.381Z,53.99
2019-05-12T10:40:13.889Z,52.25
2019-05-12T10:42:46.105Z,50.25
2019-05-12T10:45:10.783Z,49.77
2019-05-12T10:47:38.667Z,50.03
2019-05-12T10:50:05.983Z,46.66
2019-05-12T10:52:35.102Z,47.85
2019-05-12T10:55:01.470Z,48.83
2019-05-12T10:57:28.264Z,46.47
2019-05-12T10:59:54.977Z,47.07
2019-05-12T11:02:26.554Z,46.54
2019-05-12T11:04:50.431Z,45.82
2019-05-12T11:07:23.016Z,45.94
2019-05-12T11:09:47.042Z,47.88
2019-05-12T11:12:13.888Z,48.64
2019-05-12T11:14:43.846Z,49.59
2019-05-12T11:17:11.100Z,50.41
2019-05-12T11:19:40.656Z,48.40
2019-05-12T11:22:06.556Z,46.59
2019-05-12T11:24:33.789Z,44.67
2019-05-12T11:27:00.734Z,43.99
2019-05-12T11:29:27.425Z,45.24
2019-05-12T11:31:54.456Z,47.92
2019-05-12T11:34:21.127Z,44.06
2019-05-12T11:36:47.862Z,42.26
2019-05-12T11:39:14.571Z,43.71
2019-05-12T11:41:44.346Z,44.42
2019-05-12T11:44:10.596Z,45.00
2019-05-12T11:46:37.331Z,42.20
2019-05-12T11:49:04.395Z,44.45
2019-05-12T11:51:31.196Z,46.67
2019-05-12T11:53:57.873Z,48.18
2019-05-12T11:56:24.683Z,48.92
2019-05-12T11:58:52.062Z,46.58
2019-05-12T12:01:24.236Z,43.16
2019-05-12T12:03:50.650Z,43.38
2019-05-12T12:06:17.341Z,45.29
2019-05-12T12:08:44.265Z,46.20
2019-05-12T12:11:18.171Z,44.91
2019-05-12T12:13:39.628Z,42.74
2019-05-12T12:16:11.244Z,43.36
2019-05-12T12:18:35.138Z,42.89
2019-05-12T12:21:04.147Z,44.15
2019-05-12T12:23:33.451Z,44.92
2019-05-12T12:26:00.233Z,43.89
2019-05-12T12:28:27.015Z,44.91
2019-05-12T12:30:56.848Z,44.38
2019-05-12T12:33:23.454Z,44.15
2019-05-12T12:35:55.559Z,43.27
2019-05-12T12:38:19.120Z,44.60
2019-05-12T12:40:45.914Z,44.14
2019-05-12T12:43:13.726Z,43.07
2019-05-12T12:46:00.481Z,43.80
2019-05-12T12:48:29.932Z,44.19
2019-05-12T12:50:56.749Z,41.87
2019-05-12T12:53:23.961Z,42.73
2019-05-12T12:55:53.779Z,40.28
2019-05-12T12:58:21.001Z,40.70
2019-05-12T13:00:54.466Z,41.46
2019-05-12T13:03:19.618Z,41.52
2019-05-12T13:05:47.001Z,42.08
2019-05-12T13:08:13.697Z,43.48
2019-05-12T13:10:46.300Z,42.54
2019-05-12T13:13:09.066Z,41.90
2019-05-12T13:15:36.928Z,41.88
2019-05-12T13:18:04.498Z,42.20
2019-05-12T13:20:31.175Z,42.07
2019-05-12T13:22:57.954Z,42.23
2019-05-12T13:25:25.015Z,42.23
2019-05-12T13:27:53.452Z,42.40
2019-05-12T13:30:21.581Z,41.52
2019-05-12T13:32:49.327Z,43.02
2019-05-12T13:35:19.817Z,43.07
2019-05-12T13:37:44.814Z,40.18
2019-05-12T13:40:11.734Z,39.29
2019-05-12T13:42:38.538Z,39.43
2019-05-12T13:45:05.912Z,39.99
2019-05-12T13:47:35.443Z,39.90
2019-05-12T13:50:03.898Z,40.51
2019-05-12T13:52:30.620Z,39.75
2019-05-12T13:55:00.241Z,40.33
2019-05-12T13:57:25.960Z,40.65
2019-05-12T13:59:53.688Z,39.42
2019-05-12T14:02:22.340Z,39.84
2019-05-12T14:04:49.776Z,40.00
2019-05-12T14:07:20.108Z,40.71
2019-05-12T14:09:45.145Z,41.64
2019-05-12T14:12:13.570Z,41.54
2019-05-12T14:14:40.458Z,41.96
2019-05-12T14:17:07.157Z,42.73
2019-05-12T14:19:35.719Z,42.79
2019-05-12T14:22:03.546Z,43.23
2019-05-12T14:24:33.157Z,42.58
2019-05-12T14:26:59.069Z,44.51
2019-05-12T14:29:30.434Z,44.28
2019-05-12T14:32:01.698Z,41.79
2019-05-12T14:34:23.603Z,42.20
2019-05-12T14:36:50.534Z,41.87
2019-05-12T14:39:17.220Z,43.03
2019-05-12T14:41:52.924Z,42.04
2019-05-12T14:44:13.832Z,44.42
2019-05-12T14:46:48.681Z,39.83
2019-05-12T14:49:09.443Z,37.48
2019-05-12T14:51:36.141Z,36.70
2019-05-12T14:54:04.039Z,35.34
2019-05-12T14:56:30.769Z,37.58
2019-05-12T14:59:00.645Z,39.85
2019-05-12T15:01:38.695Z,40.97
2019-05-12T15:03:54.615Z,40.91
2019-05-12T15:06:25.708Z,42.53
2019-05-12T15:08:49.964Z,42.22
2019-05-12T15:11:16.635Z,42.35
2019-05-12T15:13:43.750Z,42.56
2019-05-12T15:16:10.535Z,42.16
2019-05-12T15:18:39.440Z,43.34
2019-05-12T15:21:05.838Z,43.96
2019-05-12T15:23:37.129Z,43.15
2019-05-12T15:26:01.126Z,43.81
2019-05-12T15:28:27.913Z,43.07
2019-05-12T15:30:54.597Z,43.82
2019-05-12T15:33:21.339Z,43.44
2019-05-12T15:35:48.038Z,43.35
2019-05-12T15:38:16.809Z,42.50
2019-05-12T15:40:44.008Z,43.10
2019-05-12T15:43:10.713Z,43.37
2019-05-12T15:45:38.022Z,44.57
2019-05-12T15:48:04.801Z,44.13
2019-05-12T15:50:34.040Z,44.51
2019-05-12T15:53:00.171Z,42.79
2019-05-12T15:55:32.964Z,43.25
2019-05-12T15:57:55.593Z,42.93
2019-05-12T16:00:24.316Z,43.93
2019-05-12T16:02:53.381Z,42.63
2019-05-12T16:05:25.386Z,43.67
2019-05-12T16:07:48.758Z,43.97
2019-05-12T16:10:15.997Z,43.53
2019-05-12T16:12:43.598Z,44.51
2019-05-12T16:15:16.980Z,44.52
2019-05-12T16:17:40.115Z,43.79
2019-05-12T16:20:07.043Z,43.70
2019-05-12T16:22:37.281Z,42.85
2019-05-12T16:25:04.383Z,42.93
2019-05-12T16:27:35.579Z,43.94
2019-05-12T16:30:00.614Z,44.15
2019-05-12T16:32:39.474Z,44.34
2019-05-12T16:34:56.400Z,45.86
2019-05-12T16:37:31.320Z,46.25
2019-05-12T16:39:53.641Z,45.89
2019-05-12T16:42:20.523Z,46.13
2019-05-12T16:44:47.219Z,45.62
2019-05-12T16:47:18.644Z,47.05
2019-05-12T16:49:44.603Z,51.18
2019-05-12T16:52:13.710Z,45.65
2019-05-12T16:54:40.286Z,46.55
2019-05-12T16:57:12.906Z,44.76
2019-05-12T16:59:35.905Z,46.11
2019-05-12T17:02:05.585Z,47.20
2019-05-12T17:04:33.348Z,44.80
2019-05-12T17:07:00.503Z,44.93
2019-05-12T17:09:29.657Z,45.73
2019-05-12T17:11:56.305Z,43.72
2019-05-12T17:14:23.583Z,45.60
2019-05-12T17:16:54.212Z,44.56
2019-05-12T17:19:23.094Z,45.23
2019-05-12T17:21:55.493Z,46.48
2019-05-12T17:24:18.538Z,46.52
2019-05-12T17:26:45.366Z,47.56
2019-05-12T17:29:13.667Z,48.37
2019-05-12T17:31:40.601Z,49.99
2019-05-12T17:34:09.065Z,50.24
2019-05-12T17:36:36.102Z,51.93
2019-05-12T17:39:06.569Z,55.21
2019-05-12T17:41:40.237Z,55.82
2019-05-12T17:44:04.227Z,54.45
2019-05-12T17:46:32.322Z,59.06
2019-05-12T17:49:00.058Z,53.91
2019-05-12T17:51:30.961Z,52.88
2019-05-12T17:53:55.877Z,54.75
2019-05-12T17:56:25.120Z,57.00
2019-05-12T17:58:51.302Z,57.00
2019-05-12T18:01:22.951Z,53.22
2019-05-12T18:03:50.527Z,53.63
2019-05-12T18:06:20.349Z,53.63
2019-05-12T18:08:44.873Z,54.49
2019-05-12T18:11:13.668Z,56.79
2019-05-12T18:13:40.344Z,56.79
2019-05-12T18:16:11.630Z,58.68
2019-05-12T18:18:38.260Z,63.24
2019-05-12T18:21:04.826Z,60.09
2019-05-12T18:23:31.497Z,56.30
2019-05-12T18:26:03.198Z,55.05
2019-05-12T18:28:27.805Z,55.05
2019-05-12T18:30:55.481Z,54.45
2019-05-12T18:33:32.610Z,55.82
2019-05-12T18:35:50.996Z,56.85
2019-05-12T18:38:22.962Z,56.85
2019-05-12T18:40:46.707Z,60.44
2019-05-12T18:43:14.174Z,58.82
2019-05-12T18:45:40.976Z,58.82
2019-05-12T18:48:16.598Z,58.21
2019-05-12T18:50:36.574Z,58.21
2019-05-12T18:53:03.357Z,54.76
2019-05-12T18:55:35.746Z,56.42
2019-05-12T18:57:58.630Z,56.51
2019-05-12T19:00:26.054Z,56.40
2019-05-12T19:02:54.465Z,57.40
2019-05-12T19:05:27.546Z,57.32
2019-05-12T19:07:50.165Z,60.46
2019-05-12T19:10:17.042Z,58.17
2019-05-12T19:12:44.199Z,62.54
2019-05-12T19:15:17.324Z,60.58
2019-05-12T19:17:40.164Z,59.59
2019-05-12T19:20:07.593Z,62.56
2019-05-12T19:22:39.241Z,62.61
2019-05-12T19:25:04.043Z,63.14
2019-05-12T19:27:30.821Z,64.82
2019-05-12T19:29:57.613Z,66.63
2019-05-12T19:32:27.972Z,68.98
2019-05-12T19:34:54.619Z,72.35
2019-05-12T19:37:26.501Z,72.74
2019-05-12T19:39:50.244Z,75.16
2019-05-12T19:42:20.317Z,78.62
2019-05-12T19:44:45.603Z,76.01
2019-05-12T19:47:13.742Z,79.45
2019-05-12T19:49:47.936Z,79.39
2019-05-12T19:52:09.159Z,81.23
2019-05-12T19:54:36.874Z,83.32
2019-05-12T19:57:04.501Z,85.03
2019-05-12T19:59:31.453Z,86.14
2019-05-12T20:01:59.132Z,89.26
2019-05-12T20:04:33.162Z,92.55
2019-05-12T20:06:54.624Z,94.62
2019-05-12T20:09:24.355Z,96.10
2019-05-12T20:11:53.567Z,97.13
2019-05-12T20:14:21.474Z,98.25
2019-05-12T20:16:48.923Z,96.28
2019-05-12T20:19:19.880Z,97.67
2019-05-12T20:21:44.398Z,100.00
2019-05-12T20:24:11.084Z,100.00
2019-05-12T20:26:38.698Z,100.00
2019-05-12T20:29:06.794Z,100.00
2019-05-12T20:31:37.454Z,100.00
2019-05-12T20:34:06.195Z,100.00
2019-05-12T20:36:33.472Z,100.00
2019-05-12T20:39:00.352Z,100.00
2019-05-12T20:41:27.141Z,100.00
2019-05-12T20:43:53.813Z,100.00
2019-05-12T20:46:25.629Z,100.00
2019-05-12T20:48:49.305Z,100.00
2019-05-12T20:51:20.163Z,100.00
2019-05-12T20:53:46.224Z,100.00
2019-05-12T20:56:20.008Z,100.00
2019-05-12T20:58:45.861Z,100.00
2019-05-12T21:01:10.437Z,100.00
2019-05-12T21:03:39.846Z,100.00
2019-05-12T21:06:05.976Z,100.00
2019-05-12T21:08:33.883Z,100.00
2019-05-12T21:11:00.930Z,100.00
2019-05-12T21:13:31.739Z,100.00
2019-05-12T21:15:56.646Z,100.00
2019-05-12T21:18:23.848Z,100.00
2019-05-12T21:20:52.326Z,100.00
2019-05-12T21:23:19.302Z,100.00
2019-05-12T21:25:52.521Z,100.00
2019-05-12T21:28:15.013Z,100.00
2019-05-12T21:30:42.429Z,100.00
2019-05-12T21:33:10.442Z,100.00
2019-05-12T21:35:40.864Z,100.00
2019-05-12T21:38:05.998Z,100.00
2019-05-12T21:40:34.942Z,100.00
2019-05-12T21:43:04.027Z,100.00
2019-05-12T21:45:31.121Z,100.00
2019-05-12T21:47:57.894Z,100.00
2019-05-12T21:50:32.495Z,100.00
2019-05-12T21:52:57.049Z,100.00
2019-05-12T21:55:26.073Z,100.00
2019-05-12T21:57:50.529Z,100.00
2019-05-12T22:00:24.697Z,100.00
2019-05-12T22:02:56.410Z,100.00
2019-05-12T22:05:37.314Z,100.00
2019-05-12T22:07:50.718Z,100.00
2019-05-12T22:10:25.237Z,100.00
2019-05-12T22:12:46.142Z,100.00
2019-05-12T22:15:21.281Z,100.00
2019-05-12T22:18:00.621Z,100.00
2019-05-12T22:20:29.181Z,100.00
2019-05-12T22:23:00.674Z,100.00
2019-05-12T22:25:24.542Z,100.00
2019-05-12T22:27:53.745Z,100.00
2019-05-12T22:30:21.087Z,100.00
2019-05-12T22:32:47.768Z,100.00
2019-05-12T22:35:21.642Z,100.00
2019-05-12T22:37:45.047Z,100.00
2019-05-12T22:40:17.825Z,100.00
2019-05-12T22:42:41.596Z,100.00
2019-05-12T22:45:08.715Z,100.00
2019-05-12T22:47:35.576Z,100.00
2019-05-12T22:50:04.220Z,100.00
2019-05-12T22:52:31.024Z,100.00
2019-05-12T22:54:57.690Z,100.00
2019-05-12T22:57:28.927Z,100.00
2019-05-12T22:59:53.237Z,100.00
2019-05-12T23:02:25.377Z,100.00
2019-05-12T23:04:48.613Z,100.00
2019-05-12T23:07:19.147Z,100.00
2019-05-12T23:09:43.962Z,100.00
2019-05-12T23:12:18.480Z,100.00
2019-05-12T23:14:39.333Z,100.00
2019-05-12T23:17:07.509Z,100.00
2019-05-12T23:19:35.398Z,100.00
2019-05-12T23:22:03.552Z,100.00
2019-05-12T23:24:39.197Z,100.00
2019-05-12T23:26:59.934Z,100.00
2019-05-12T23:29:30.866Z,100.00
2019-05-12T23:31:55.311Z,100.00
2019-05-12T23:34:23.967Z,100.00
2019-05-12T23:36:56.591Z,100.00
2019-05-12T23:39:19.365Z,100.00
2019-05-12T23:41:46.132Z,100.00
2019-05-12T23:44:13.518Z,100.00
2019-05-12T23:46:40.572Z,100.00
2019-05-12T23:49:07.366Z,100.00
2019-05-12T23:51:34.189Z,100.00
2019-05-12T23:54:00.890Z,100.00
2019-05-12T23:56:27.650Z,100.00
2019-05-12T23:58:54.321Z,100.00
